Travis Air Force Base
KSUU : now visible

Airfield :











YOU CAN JOIN US ON...

 
LOGIN :

Register | Disclaimer

   EN    FR    IT 

 









Legend :    VFR   Marginal VFR   IFR   Intensive IFR   Very Intensive IFR
Visi :
Ceiling :
>= 8 km
>= 3000ft
5 to 8 km
1000 to 3000 ft
1500m to 5 km
500 to 1000 ft
800 to 1500m
200 to 500 ft
< 800m
< 200 ft
Symbols :   Thunderstorms  Fog  Heavy snow  Heavy precipitations  Wind > 20 kt







- Airport Elevation : 62 ft


KSUU - Travis Air Force Base

CURRENT METAR :
  • 260742Z AUTO 21021G28KT 10SM -RA FEW024 FEW055 FEW110 13/09 A2967 RMK AO2 RAB42 SLP054 $

EXPIRED METARs :
  • 260658Z AUTO 22020KT 10SM CLR 13/09 A2968 RMK AO2 PK WND 23026/48 SLP057 T01300089 $
  • 260558Z AUTO 21017KT 10SM SCT150 13/09 A2971 RMK AO2 SLP067 T01340091 10225 20134 57008 $
  • 260458Z AUTO 22017KT 10SM CLR 14/09 A2972 RMK AO2 SLP071 T01390085 $

TAF TAF KSUU
Valid from the 26 at 03:00 until the 27 at 09:00 UTC


260300Z 2603/2709 23015G25KT 9999 SKC QNH2967INS
BECMG 2608/2609 23015G25KT 9000 -SHRA BKN015 QNH2967INS
BECMG 2620/2621 23012KT 9000 -SHRA BKN020 QNH2975INS
BECMG 2623/2624 23012KT 9999 NSW BKN030 QNH2980INS TX28/2623Z TN10/2613Z
KZOA FIR / North America



MET'MAP, your aeronautical weather chart ! - Copyright ORBIFLY December 2007 - Disclaimer

ORBIFLY MET'MAP TEAM :

Programming & Development : Alexandra Zaïnal
Concept & Development : Baudouin d'Aumeries
Co-Development & Prog : Marc-Olivier Méhu
Technical & hardware support : Manuel Goepfert

Contact : metmap@orbifly.com




SOURCES & CREDITS :

   NOAA       Earth
Advisory